sensor_id;sensor_type;location;lat;lon;timestamp;temperature;humidity
5128;DHT22;2582;48.770;9.190;2023-08-31T00:01:39;16.30;99.90
5128;DHT22;2582;48.770;9.190;2023-08-31T00:04:04;16.10;99.90
5128;DHT22;2582;48.770;9.190;2023-08-31T00:06:32;16.00;99.90
5128;DHT22;2582;48.770;9.190;2023-08-31T00:08:58;16.00;99.90
5128;DHT22;2582;48.770;9.190;2023-08-31T00:11:24;16.00;99.90
5128;DHT22;2582;48.770;9.190;2023-08-31T00:13:51;16.00;99.90
5128;DHT22;2582;48.770;9.190;2023-08-31T00:16:17;16.10;99.90
5128;DHT22;2582;48.770;9.190;2023-08-31T00:18:43;16.00;99.90
5128;DHT22;2582;48.770;9.190;2023-08-31T00:21:10;16.10;99.90
5128;DHT22;2582;48.770;9.190;2023-08-31T00:23:36;15.90;99.90
5128;DHT22;2582;48.770;9.190;2023-08-31T00:26:02;16.00;99.90
5128;DHT22;2582;48.770;9.190;2023-08-31T00:28:28;15.80;99.90
5128;DHT22;2582;48.770;9.190;2023-08-31T00:30:54;15.80;99.90
5128;DHT22;2582;48.770;9.190;2023-08-31T00:33:19;15.90;99.90
5128;DHT22;2582;48.770;9.190;2023-08-31T00:35:45;15.90;99.90
5128;DHT22;2582;48.770;9.190;2023-08-31T00:38:12;16.00;99.90
5128;DHT22;2582;48.770;9.190;2023-08-31T00:40:39;16.10;99.90
5128;DHT22;2582;48.770;9.190;2023-08-31T00:43:08;16.10;99.90
5128;DHT22;2582;48.770;9.190;2023-08-31T00:45:33;16.10;99.90
5128;DHT22;2582;48.770;9.190;2023-08-31T00:48:00;16.00;99.90
5128;DHT22;2582;48.770;9.190;2023-08-31T00:50:26;16.00;99.90
5128;DHT22;2582;48.770;9.190;2023-08-31T00:52:51;16.00;99.90
5128;DHT22;2582;48.770;9.190;2023-08-31T00:55:17;15.90;99.90
5128;DHT22;2582;48.770;9.190;2023-08-31T00:57:43;15.90;99.90
5128;DHT22;2582;48.770;9.190;2023-08-31T01:00:09;15.90;99.90
5128;DHT22;2582;48.770;9.190;2023-08-31T01:03:01;15.70;99.90
5128;DHT22;2582;48.770;9.190;2023-08-31T01:06:02;15.70;99.90
5128;DHT22;2582;48.770;9.190;2023-08-31T01:08:29;15.50;99.90
5128;DHT22;2582;48.770;9.190;2023-08-31T01:11:18;15.40;99.90
5128;DHT22;2582;48.770;9.190;2023-08-31T01:13:51;15.30;99.90
5128;DHT22;2582;48.770;9.190;2023-08-31T01:16:17;15.30;99.90
5128;DHT22;2582;48.770;9.190;2023-08-31T01:18:43;15.20;99.90
5128;DHT22;2582;48.770;9.190;2023-08-31T01:21:20;15.20;99.90
5128;DHT22;2582;48.770;9.190;2023-08-31T01:23:49;15.10;99.90
5128;DHT22;2582;48.770;9.190;2023-08-31T01:26:16;15.00;99.90
5128;DHT22;2582;48.770;9.190;2023-08-31T01:28:42;14.90;99.90
5128;DHT22;2582;48.770;9.190;2023-08-31T01:31:08;14.90;99.90
5128;DHT22;2582;48.770;9.190;2023-08-31T01:33:34;14.90;99.90
5128;DHT22;2582;48.770;9.190;2023-08-31T01:36:03;14.90;99.90
5128;DHT22;2582;48.770;9.190;2023-08-31T01:38:32;14.80;99.90
5128;DHT22;2582;48.770;9.190;2023-08-31T01:41:05;14.70;99.90
5128;DHT22;2582;48.770;9.190;2023-08-31T01:43:32;14.70;99.90
5128;DHT22;2582;48.770;9.190;2023-08-31T01:46:01;14.70;99.90
5128;DHT22;2582;48.770;9.190;2023-08-31T01:48:27;14.60;99.90
5128;DHT22;2582;48.770;9.190;2023-08-31T01:50:52;14.70;99.90
5128;DHT22;2582;48.770;9.190;2023-08-31T01:53:18;14.60;99.90
5128;DHT22;2582;48.770;9.190;2023-08-31T01:55:43;14.60;99.90
5128;DHT22;2582;48.770;9.190;2023-08-31T01:58:09;14.60;99.90
5128;DHT22;2582;48.770;9.190;2023-08-31T02:00:35;14.70;99.90
5128;DHT22;2582;48.770;9.190;2023-08-31T02:03:01;14.70;99.90
5128;DHT22;2582;48.770;9.190;2023-08-31T02:05:26;14.80;99.90
5128;DHT22;2582;48.770;9.190;2023-08-31T02:07:52;14.90;99.90
5128;DHT22;2582;48.770;9.190;2023-08-31T02:10:18;15.00;99.90
5128;DHT22;2582;48.770;9.190;2023-08-31T02:12:43;15.10;99.90
5128;DHT22;2582;48.770;9.190;2023-08-31T02:15:09;15.10;99.90
5128;DHT22;2582;48.770;9.190;2023-08-31T02:17:35;15.10;99.90
5128;DHT22;2582;48.770;9.190;2023-08-31T02:20:01;15.20;99.90
5128;DHT22;2582;48.770;9.190;2023-08-31T02:22:35;15.10;99.90
5128;DHT22;2582;48.770;9.190;2023-08-31T02:25:01;15.10;99.90
5128;DHT22;2582;48.770;9.190;2023-08-31T02:27:27;15.10;99.90
5128;DHT22;2582;48.770;9.190;2023-08-31T02:29:53;15.10;99.90
5128;DHT22;2582;48.770;9.190;2023-08-31T02:32:19;15.20;99.90
5128;DHT22;2582;48.770;9.190;2023-08-31T02:34:44;15.20;99.90
5128;DHT22;2582;48.770;9.190;2023-08-31T02:37:10;15.30;99.90
5128;DHT22;2582;48.770;9.190;2023-08-31T02:39:36;15.10;99.90
5128;DHT22;2582;48.770;9.190;2023-08-31T02:42:01;14.90;99.90
5128;DHT22;2582;48.770;9.190;2023-08-31T02:44:27;15.10;99.90
5128;DHT22;2582;48.770;9.190;2023-08-31T02:46:53;15.20;99.90
5128;DHT22;2582;48.770;9.190;2023-08-31T02:49:18;15.30;99.90
5128;DHT22;2582;48.770;9.190;2023-08-31T02:51:44;15.40;99.90
5128;DHT22;2582;48.770;9.190;2023-08-31T02:54:09;15.40;99.90
5128;DHT22;2582;48.770;9.190;2023-08-31T02:56:35;15.50;99.90
5128;DHT22;2582;48.770;9.190;2023-08-31T02:59:00;15.60;99.90
5128;DHT22;2582;48.770;9.190;2023-08-31T03:01:26;15.70;99.90
5128;DHT22;2582;48.770;9.190;2023-08-31T03:03:51;15.50;99.90
5128;DHT22;2582;48.770;9.190;2023-08-31T03:06:17;15.50;99.90
5128;DHT22;2582;48.770;9.190;2023-08-31T03:08:42;15.50;99.90
5128;DHT22;2582;48.770;9.190;2023-08-31T03:11:08;15.40;99.90
5128;DHT22;2582;48.770;9.190;2023-08-31T03:13:34;15.40;99.90
5128;DHT22;2582;48.770;9.190;2023-08-31T03:16:00;15.30;99.90
5128;DHT22;2582;48.770;9.190;2023-08-31T03:18:26;15.30;99.90
5128;DHT22;2582;48.770;9.190;2023-08-31T03:20:52;15.20;99.90
5128;DHT22;2582;48.770;9.190;2023-08-31T03:23:17;15.00;99.90
5128;DHT22;2582;48.770;9.190;2023-08-31T03:25:43;15.00;99.90
5128;DHT22;2582;48.770;9.190;2023-08-31T03:28:08;15.00;99.90
5128;DHT22;2582;48.770;9.190;2023-08-31T03:30:35;15.10;99.90
5128;DHT22;2582;48.770;9.190;2023-08-31T03:33:01;15.10;99.90
5128;DHT22;2582;48.770;9.190;2023-08-31T03:35:27;15.10;99.90
5128;DHT22;2582;48.770;9.190;2023-08-31T03:37:54;15.00;99.90
5128;DHT22;2582;48.770;9.190;2023-08-31T03:40:20;15.10;99.90
5128;DHT22;2582;48.770;9.190;2023-08-31T03:42:45;14.90;99.90
5128;DHT22;2582;48.770;9.190;2023-08-31T03:45:11;15.00;99.90
5128;DHT22;2582;48.770;9.190;2023-08-31T03:47:37;14.90;99.90
5128;DHT22;2582;48.770;9.190;2023-08-31T03:50:03;14.80;99.90
5128;DHT22;2582;48.770;9.190;2023-08-31T03:52:29;14.90;99.90
5128;DHT22;2582;48.770;9.190;2023-08-31T03:54:55;14.90;99.90
5128;DHT22;2582;48.770;9.190;2023-08-31T03:57:20;14.70;99.90
5128;DHT22;2582;48.770;9.190;2023-08-31T03:59:46;14.80;99.90
5128;DHT22;2582;48.770;9.190;2023-08-31T04:02:12;14.70;99.90
5128;DHT22;2582;48.770;9.190;2023-08-31T04:04:37;14.80;99.90
5128;DHT22;2582;48.770;9.190;2023-08-31T04:07:03;14.80;99.90
5128;DHT22;2582;48.770;9.190;2023-08-31T04:09:29;14.80;99.90
5128;DHT22;2582;48.770;9.190;2023-08-31T04:11:55;14.80;99.90
5128;DHT22;2582;48.770;9.190;2023-08-31T04:14:21;14.80;99.90
5128;DHT22;2582;48.770;9.190;2023-08-31T04:16:46;14.80;99.90
5128;DHT22;2582;48.770;9.190;2023-08-31T04:19:15;14.80;99.90
5128;DHT22;2582;48.770;9.190;2023-08-31T04:21:41;14.80;99.90
5128;DHT22;2582;48.770;9.190;2023-08-31T04:24:07;14.80;99.90
5128;DHT22;2582;48.770;9.190;2023-08-31T04:26:32;14.90;99.90
5128;DHT22;2582;48.770;9.190;2023-08-31T04:28:58;14.90;99.90
5128;DHT22;2582;48.770;9.190;2023-08-31T04:31:24;14.90;99.90
5128;DHT22;2582;48.770;9.190;2023-08-31T04:33:49;14.80;99.90
5128;DHT22;2582;48.770;9.190;2023-08-31T04:36:21;14.70;99.90
5128;DHT22;2582;48.770;9.190;2023-08-31T04:38:48;14.70;99.90
5128;DHT22;2582;48.770;9.190;2023-08-31T04:41:14;14.60;99.90
5128;DHT22;2582;48.770;9.190;2023-08-31T04:43:40;14.60;99.90
5128;DHT22;2582;48.770;9.190;2023-08-31T04:46:06;14.50;99.90
5128;DHT22;2582;48.770;9.190;2023-08-31T04:48:32;14.50;99.90
5128;DHT22;2582;48.770;9.190;2023-08-31T04:50:57;14.50;99.90
5128;DHT22;2582;48.770;9.190;2023-08-31T04:53:23;14.50;99.90
5128;DHT22;2582;48.770;9.190;2023-08-31T04:55:49;14.50;99.90
5128;DHT22;2582;48.770;9.190;2023-08-31T04:58:14;14.50;99.90
5128;DHT22;2582;48.770;9.190;2023-08-31T05:00:40;14.50;99.90
5128;DHT22;2582;48.770;9.190;2023-08-31T05:03:05;14.40;99.90
5128;DHT22;2582;48.770;9.190;2023-08-31T05:05:31;14.50;99.90
5128;DHT22;2582;48.770;9.190;2023-08-31T05:07:57;14.50;99.90
5128;DHT22;2582;48.770;9.190;2023-08-31T05:10:24;14.50;99.90
5128;DHT22;2582;48.770;9.190;2023-08-31T05:12:49;14.60;99.90
5128;DHT22;2582;48.770;9.190;2023-08-31T05:15:15;14.60;99.90
5128;DHT22;2582;48.770;9.190;2023-08-31T05:17:41;14.60;99.90
5128;DHT22;2582;48.770;9.190;2023-08-31T05:20:07;14.60;99.90
5128;DHT22;2582;48.770;9.190;2023-08-31T05:22:35;14.60;99.90
5128;DHT22;2582;48.770;9.190;2023-08-31T05:25:01;14.70;99.90
5128;DHT22;2582;48.770;9.190;2023-08-31T05:27:26;14.80;99.90
5128;DHT22;2582;48.770;9.190;2023-08-31T05:29:52;14.90;99.90
5128;DHT22;2582;48.770;9.190;2023-08-31T05:32:17;15.00;99.90
5128;DHT22;2582;48.770;9.190;2023-08-31T05:34:43;15.10;99.90
5128;DHT22;2582;48.770;9.190;2023-08-31T05:37:08;15.10;99.90
5128;DHT22;2582;48.770;9.190;2023-08-31T05:39:34;15.20;99.90
5128;DHT22;2582;48.770;9.190;2023-08-31T05:42:00;15.30;99.90
5128;DHT22;2582;48.770;9.190;2023-08-31T05:44:26;15.40;99.90
5128;DHT22;2582;48.770;9.190;2023-08-31T05:46:51;15.40;99.90
5128;DHT22;2582;48.770;9.190;2023-08-31T05:49:17;15.30;99.90
5128;DHT22;2582;48.770;9.190;2023-08-31T05:51:43;15.40;99.90
5128;DHT22;2582;48.770;9.190;2023-08-31T05:54:08;15.50;99.90
5128;DHT22;2582;48.770;9.190;2023-08-31T05:56:40;15.50;99.90
5128;DHT22;2582;48.770;9.190;2023-08-31T05:59:06;15.60;99.90
5128;DHT22;2582;48.770;9.190;2023-08-31T06:01:35;15.40;99.90
5128;DHT22;2582;48.770;9.190;2023-08-31T06:04:01;15.30;99.90
5128;DHT22;2582;48.770;9.190;2023-08-31T06:06:28;15.30;99.90
5128;DHT22;2582;48.770;9.190;2023-08-31T06:08:54;15.40;99.90
5128;DHT22;2582;48.770;9.190;2023-08-31T06:11:20;15.10;99.90
5128;DHT22;2582;48.770;9.190;2023-08-31T06:13:46;15.00;99.90
5128;DHT22;2582;48.770;9.190;2023-08-31T06:16:12;15.10;99.90
5128;DHT22;2582;48.770;9.190;2023-08-31T06:18:37;15.20;99.90
5128;DHT22;2582;48.770;9.190;2023-08-31T06:21:03;15.20;99.90
5128;DHT22;2582;48.770;9.190;2023-08-31T06:23:29;15.40;99.90
5128;DHT22;2582;48.770;9.190;2023-08-31T06:25:54;15.50;99.90
5128;DHT22;2582;48.770;9.190;2023-08-31T06:28:20;15.60;99.90
5128;DHT22;2582;48.770;9.190;2023-08-31T06:30:45;15.60;99.90
5128;DHT22;2582;48.770;9.190;2023-08-31T06:33:13;15.60;99.90
5128;DHT22;2582;48.770;9.190;2023-08-31T06:35:39;15.70;99.90
5128;DHT22;2582;48.770;9.190;2023-08-31T06:38:05;15.80;99.90
5128;DHT22;2582;48.770;9.190;2023-08-31T06:40:30;15.90;99.90
5128;DHT22;2582;48.770;9.190;2023-08-31T06:42:56;15.90;99.90
5128;DHT22;2582;48.770;9.190;2023-08-31T06:45:22;15.90;99.90
5128;DHT22;2582;48.770;9.190;2023-08-31T06:47:48;16.00;99.90
5128;DHT22;2582;48.770;9.190;2023-08-31T06:50:13;15.90;99.90
5128;DHT22;2582;48.770;9.190;2023-08-31T06:52:39;15.90;99.90
5128;DHT22;2582;48.770;9.190;2023-08-31T06:55:06;15.80;99.90
5128;DHT22;2582;48.770;9.190;2023-08-31T06:57:32;15.90;99.90
5128;DHT22;2582;48.770;9.190;2023-08-31T06:59:58;16.10;99.90
5128;DHT22;2582;48.770;9.190;2023-08-31T07:02:26;16.30;99.90
5128;DHT22;2582;48.770;9.190;2023-08-31T07:04:52;16.70;99.90
5128;DHT22;2582;48.770;9.190;2023-08-31T07:07:18;17.00;99.90
5128;DHT22;2582;48.770;9.190;2023-08-31T07:09:45;17.00;99.90
5128;DHT22;2582;48.770;9.190;2023-08-31T07:12:11;17.20;99.90
5128;DHT22;2582;48.770;9.190;2023-08-31T07:14:37;17.20;99.90
5128;DHT22;2582;48.770;9.190;2023-08-31T07:17:03;17.30;99.90
5128;DHT22;2582;48.770;9.190;2023-08-31T07:19:28;17.50;99.90
5128;DHT22;2582;48.770;9.190;2023-08-31T07:21:54;17.60;99.90
5128;DHT22;2582;48.770;9.190;2023-08-31T07:24:23;17.50;99.90
5128;DHT22;2582;48.770;9.190;2023-08-31T07:26:49;17.60;99.90
5128;DHT22;2582;48.770;9.190;2023-08-31T07:29:15;17.60;99.90
5128;DHT22;2582;48.770;9.190;2023-08-31T07:31:41;17.60;99.90
5128;DHT22;2582;48.770;9.190;2023-08-31T07:34:06;17.80;99.90
5128;DHT22;2582;48.770;9.190;2023-08-31T07:36:34;17.70;99.90
5128;DHT22;2582;48.770;9.190;2023-08-31T07:38:59;17.50;99.90
5128;DHT22;2582;48.770;9.190;2023-08-31T07:41:25;17.40;99.90
5128;DHT22;2582;48.770;9.190;2023-08-31T07:43:50;17.60;99.90
5128;DHT22;2582;48.770;9.190;2023-08-31T07:46:17;17.60;99.90
5128;DHT22;2582;48.770;9.190;2023-08-31T07:48:43;17.80;99.90
5128;DHT22;2582;48.770;9.190;2023-08-31T07:51:09;17.50;99.90
5128;DHT22;2582;48.770;9.190;2023-08-31T07:53:34;17.60;99.90
5128;DHT22;2582;48.770;9.190;2023-08-31T07:56:00;17.70;99.90
5128;DHT22;2582;48.770;9.190;2023-08-31T07:58:26;17.50;99.90
5128;DHT22;2582;48.770;9.190;2023-08-31T08:00:55;17.70;99.90
5128;DHT22;2582;48.770;9.190;2023-08-31T08:03:21;17.70;99.90
5128;DHT22;2582;48.770;9.190;2023-08-31T08:05:47;17.60;99.90
5128;DHT22;2582;48.770;9.190;2023-08-31T08:08:13;17.70;99.90
5128;DHT22;2582;48.770;9.190;2023-08-31T08:10:38;17.90;99.90
5128;DHT22;2582;48.770;9.190;2023-08-31T08:13:04;17.90;99.90
5128;DHT22;2582;48.770;9.190;2023-08-31T08:15:30;17.90;99.90
5128;DHT22;2582;48.770;9.190;2023-08-31T08:17:56;17.80;99.90
5128;DHT22;2582;48.770;9.190;2023-08-31T08:20:25;17.90;99.90
5128;DHT22;2582;48.770;9.190;2023-08-31T08:22:51;18.10;99.90
5128;DHT22;2582;48.770;9.190;2023-08-31T08:25:20;18.10;99.90
5128;DHT22;2582;48.770;9.190;2023-08-31T08:27:46;18.40;99.90
5128;DHT22;2582;48.770;9.190;2023-08-31T08:30:13;18.60;99.90
5128;DHT22;2582;48.770;9.190;2023-08-31T08:32:39;18.70;99.90
5128;DHT22;2582;48.770;9.190;2023-08-31T08:35:05;18.90;99.90
5128;DHT22;2582;48.770;9.190;2023-08-31T08:37:31;18.80;99.90
5128;DHT22;2582;48.770;9.190;2023-08-31T08:39:58;18.70;99.90
5128;DHT22;2582;48.770;9.190;2023-08-31T08:42:24;18.80;99.90
5128;DHT22;2582;48.770;9.190;2023-08-31T08:44:50;18.60;99.90
5128;DHT22;2582;48.770;9.190;2023-08-31T08:47:16;18.40;99.90
5128;DHT22;2582;48.770;9.190;2023-08-31T08:49:43;18.60;99.90
5128;DHT22;2582;48.770;9.190;2023-08-31T08:52:09;18.70;99.90
5128;DHT22;2582;48.770;9.190;2023-08-31T08:54:35;18.80;99.90
5128;DHT22;2582;48.770;9.190;2023-08-31T08:57:01;18.80;99.90
5128;DHT22;2582;48.770;9.190;2023-08-31T08:59:27;19.00;99.90
5128;DHT22;2582;48.770;9.190;2023-08-31T09:01:52;19.10;99.90
5128;DHT22;2582;48.770;9.190;2023-08-31T09:04:19;19.10;99.90
5128;DHT22;2582;48.770;9.190;2023-08-31T09:06:44;19.30;99.90
5128;DHT22;2582;48.770;9.190;2023-08-31T09:09:10;19.50;99.90
5128;DHT22;2582;48.770;9.190;2023-08-31T09:11:36;19.30;99.90
5128;DHT22;2582;48.770;9.190;2023-08-31T09:14:19;19.20;99.90
5128;DHT22;2582;48.770;9.190;2023-08-31T09:16:46;19.30;99.90
5128;DHT22;2582;48.770;9.190;2023-08-31T09:19:22;19.10;99.90
5128;DHT22;2582;48.770;9.190;2023-08-31T09:21:50;19.10;99.90
5128;DHT22;2582;48.770;9.190;2023-08-31T09:24:15;19.30;99.90
5128;DHT22;2582;48.770;9.190;2023-08-31T09:26:44;19.40;99.90
5128;DHT22;2582;48.770;9.190;2023-08-31T09:29:10;19.50;99.90
5128;DHT22;2582;48.770;9.190;2023-08-31T09:31:35;19.60;99.90
5128;DHT22;2582;48.770;9.190;2023-08-31T09:34:01;19.90;99.90
5128;DHT22;2582;48.770;9.190;2023-08-31T09:36:28;19.70;99.90
5128;DHT22;2582;48.770;9.190;2023-08-31T09:38:57;19.50;99.90
5128;DHT22;2582;48.770;9.190;2023-08-31T09:41:23;19.40;99.90
5128;DHT22;2582;48.770;9.190;2023-08-31T09:43:49;19.10;99.90
5128;DHT22;2582;48.770;9.190;2023-08-31T09:46:15;19.00;99.90
5128;DHT22;2582;48.770;9.190;2023-08-31T09:48:42;19.10;99.90
5128;DHT22;2582;48.770;9.190;2023-08-31T09:51:10;19.40;99.90
5128;DHT22;2582;48.770;9.190;2023-08-31T09:53:37;19.40;99.90
5128;DHT22;2582;48.770;9.190;2023-08-31T09:56:05;19.80;99.90
5128;DHT22;2582;48.770;9.190;2023-08-31T09:58:32;20.20;99.10
5128;DHT22;2582;48.770;9.190;2023-08-31T10:00:59;20.10;98.80
5128;DHT22;2582;48.770;9.190;2023-08-31T10:03:26;19.90;98.40
5128;DHT22;2582;48.770;9.190;2023-08-31T10:05:52;20.10;98.40
5128;DHT22;2582;48.770;9.190;2023-08-31T10:08:19;20.40;96.50
5128;DHT22;2582;48.770;9.190;2023-08-31T10:10:45;20.30;96.30
5128;DHT22;2582;48.770;9.190;2023-08-31T10:13:11;20.30;96.20
5128;DHT22;2582;48.770;9.190;2023-08-31T10:15:37;20.30;96.50
5128;DHT22;2582;48.770;9.190;2023-08-31T10:18:04;20.20;96.20
5128;DHT22;2582;48.770;9.190;2023-08-31T10:20:31;20.00;95.60
5128;DHT22;2582;48.770;9.190;2023-08-31T10:22:58;20.40;97.00
5128;DHT22;2582;48.770;9.190;2023-08-31T10:25:24;20.70;96.00
5128;DHT22;2582;48.770;9.190;2023-08-31T10:27:52;20.80;95.50
5128;DHT22;2582;48.770;9.190;2023-08-31T10:30:25;20.80;94.70
5128;DHT22;2582;48.770;9.190;2023-08-31T10:38:33;19.80;96.20
5128;DHT22;2582;48.770;9.190;2023-08-31T10:43:53;19.40;96.90
5128;DHT22;2582;48.770;9.190;2023-08-31T10:46:32;19.60;97.50
5128;DHT22;2582;48.770;9.190;2023-08-31T10:51:36;20.50;96.60
5128;DHT22;2582;48.770;9.190;2023-08-31T10:54:05;20.70;96.20
5128;DHT22;2582;48.770;9.190;2023-08-31T10:56:31;20.90;96.90
5128;DHT22;2582;48.770;9.190;2023-08-31T10:59:00;21.20;95.40
5128;DHT22;2582;48.770;9.190;2023-08-31T11:01:51;21.00;95.60
5128;DHT22;2582;48.770;9.190;2023-08-31T11:04:18;20.70;93.90
5128;DHT22;2582;48.770;9.190;2023-08-31T11:06:44;20.20;95.00
5128;DHT22;2582;48.770;9.190;2023-08-31T11:09:19;19.80;95.20
5128;DHT22;2582;48.770;9.190;2023-08-31T11:11:44;19.90;96.30
5128;DHT22;2582;48.770;9.190;2023-08-31T11:14:10;19.80;96.50
5128;DHT22;2582;48.770;9.190;2023-08-31T11:16:38;19.90;96.50
5128;DHT22;2582;48.770;9.190;2023-08-31T11:19:04;20.20;96.90
5128;DHT22;2582;48.770;9.190;2023-08-31T11:21:30;19.90;97.00
5128;DHT22;2582;48.770;9.190;2023-08-31T11:23:57;19.90;97.00
5128;DHT22;2582;48.770;9.190;2023-08-31T11:26:25;20.00;97.00
5128;DHT22;2582;48.770;9.190;2023-08-31T11:28:51;20.10;96.60
5128;DHT22;2582;48.770;9.190;2023-08-31T11:31:26;21.30;95.80
5128;DHT22;2582;48.770;9.190;2023-08-31T11:33:53;22.40;94.10
5128;DHT22;2582;48.770;9.190;2023-08-31T11:36:19;22.80;93.80
5128;DHT22;2582;48.770;9.190;2023-08-31T11:38:45;22.80;94.30
5128;DHT22;2582;48.770;9.190;2023-08-31T11:41:11;22.80;92.30
5128;DHT22;2582;48.770;9.190;2023-08-31T11:43:37;22.20;92.60
5128;DHT22;2582;48.770;9.190;2023-08-31T11:46:03;21.90;93.70
5128;DHT22;2582;48.770;9.190;2023-08-31T11:48:30;21.80;93.90
5128;DHT22;2582;48.770;9.190;2023-08-31T11:50:56;21.70;94.20
5128;DHT22;2582;48.770;9.190;2023-08-31T11:53:22;21.60;94.00
5128;DHT22;2582;48.770;9.190;2023-08-31T11:55:51;21.60;93.90
5128;DHT22;2582;48.770;9.190;2023-08-31T11:58:17;21.60;94.10
5128;DHT22;2582;48.770;9.190;2023-08-31T12:00:43;21.60;93.60
5128;DHT22;2582;48.770;9.190;2023-08-31T12:03:09;21.40;94.20
5128;DHT22;2582;48.770;9.190;2023-08-31T12:05:48;21.80;93.90
5128;DHT22;2582;48.770;9.190;2023-08-31T12:08:14;21.90;93.40
5128;DHT22;2582;48.770;9.190;2023-08-31T12:10:41;21.70;93.40
5128;DHT22;2582;48.770;9.190;2023-08-31T12:13:11;21.90;93.70
5128;DHT22;2582;48.770;9.190;2023-08-31T12:15:38;22.40;93.50
5128;DHT22;2582;48.770;9.190;2023-08-31T12:18:11;21.90;93.30
5128;DHT22;2582;48.770;9.190;2023-08-31T12:21:02;21.60;93.70
5128;DHT22;2582;48.770;9.190;2023-08-31T12:23:30;21.90;94.00
5128;DHT22;2582;48.770;9.190;2023-08-31T12:25:55;22.60;94.00
5128;DHT22;2582;48.770;9.190;2023-08-31T12:28:22;23.10;92.00
5128;DHT22;2582;48.770;9.190;2023-08-31T12:30:50;22.60;91.50
5128;DHT22;2582;48.770;9.190;2023-08-31T12:33:16;22.60;92.70
5128;DHT22;2582;48.770;9.190;2023-08-31T12:35:43;22.20;92.30
5128;DHT22;2582;48.770;9.190;2023-08-31T12:38:09;22.00;92.60
5128;DHT22;2582;48.770;9.190;2023-08-31T12:40:34;22.10;93.50
5128;DHT22;2582;48.770;9.190;2023-08-31T12:43:00;22.70;93.30
5128;DHT22;2582;48.770;9.190;2023-08-31T12:45:25;23.20;92.70
5128;DHT22;2582;48.770;9.190;2023-08-31T12:47:51;25.10;88.00
5128;DHT22;2582;48.770;9.190;2023-08-31T12:50:17;24.70;86.40
5128;DHT22;2582;48.770;9.190;2023-08-31T12:52:43;24.00;86.50
5128;DHT22;2582;48.770;9.190;2023-08-31T12:55:14;23.70;89.00
5128;DHT22;2582;48.770;9.190;2023-08-31T12:57:41;22.80;90.40
5128;DHT22;2582;48.770;9.190;2023-08-31T13:00:07;22.10;91.10
5128;DHT22;2582;48.770;9.190;2023-08-31T13:02:38;21.90;92.10
5128;DHT22;2582;48.770;9.190;2023-08-31T13:05:03;21.60;92.80
5128;DHT22;2582;48.770;9.190;2023-08-31T13:07:31;21.70;93.70
5128;DHT22;2582;48.770;9.190;2023-08-31T13:09:59;21.80;92.90
5128;DHT22;2582;48.770;9.190;2023-08-31T13:12:25;21.80;93.70
5128;DHT22;2582;48.770;9.190;2023-08-31T13:14:51;21.70;93.70
5128;DHT22;2582;48.770;9.190;2023-08-31T13:17:16;21.30;93.20
5128;DHT22;2582;48.770;9.190;2023-08-31T13:19:42;21.30;93.90
5128;DHT22;2582;48.770;9.190;2023-08-31T13:22:07;21.30;93.60
5128;DHT22;2582;48.770;9.190;2023-08-31T13:24:33;21.30;93.70
5128;DHT22;2582;48.770;9.190;2023-08-31T13:26:58;21.10;93.60
5128;DHT22;2582;48.770;9.190;2023-08-31T13:29:24;22.30;95.10
5128;DHT22;2582;48.770;9.190;2023-08-31T13:31:49;24.50;91.10
5128;DHT22;2582;48.770;9.190;2023-08-31T13:34:15;25.70;85.10
5128;DHT22;2582;48.770;9.190;2023-08-31T13:36:41;27.20;81.80
5128;DHT22;2582;48.770;9.190;2023-08-31T13:39:06;27.20;81.30
5128;DHT22;2582;48.770;9.190;2023-08-31T13:41:32;26.70;80.10
5128;DHT22;2582;48.770;9.190;2023-08-31T13:43:58;27.20;77.80
5128;DHT22;2582;48.770;9.190;2023-08-31T13:46:24;27.50;76.50
5128;DHT22;2582;48.770;9.190;2023-08-31T13:48:49;29.10;72.80
5128;DHT22;2582;48.770;9.190;2023-08-31T13:51:15;28.10;70.30
5128;DHT22;2582;48.770;9.190;2023-08-31T13:53:41;27.50;74.40
5128;DHT22;2582;48.770;9.190;2023-08-31T13:56:06;26.00;77.50
5128;DHT22;2582;48.770;9.190;2023-08-31T13:58:32;25.40;78.30
5128;DHT22;2582;48.770;9.190;2023-08-31T14:01:00;24.80;80.50
5128;DHT22;2582;48.770;9.190;2023-08-31T14:03:27;24.20;81.30
5128;DHT22;2582;48.770;9.190;2023-08-31T14:05:52;23.40;83.10
5128;DHT22;2582;48.770;9.190;2023-08-31T14:08:18;23.00;85.60
5128;DHT22;2582;48.770;9.190;2023-08-31T14:10:43;22.70;86.60
5128;DHT22;2582;48.770;9.190;2023-08-31T14:13:09;22.30;90.10
5128;DHT22;2582;48.770;9.190;2023-08-31T14:15:34;22.10;90.00
5128;DHT22;2582;48.770;9.190;2023-08-31T14:18:00;21.90;90.30
5128;DHT22;2582;48.770;9.190;2023-08-31T14:20:25;21.90;91.70
5128;DHT22;2582;48.770;9.190;2023-08-31T14:22:51;21.80;93.30
5128;DHT22;2582;48.770;9.190;2023-08-31T14:25:16;21.60;91.70
5128;DHT22;2582;48.770;9.190;2023-08-31T14:27:42;21.40;92.10
5128;DHT22;2582;48.770;9.190;2023-08-31T14:30:08;21.40;92.30
5128;DHT22;2582;48.770;9.190;2023-08-31T14:32:34;21.30;92.60
5128;DHT22;2582;48.770;9.190;2023-08-31T14:34:59;21.50;93.00
5128;DHT22;2582;48.770;9.190;2023-08-31T14:37:25;21.50;93.80
5128;DHT22;2582;48.770;9.190;2023-08-31T14:39:51;21.50;93.50
5128;DHT22;2582;48.770;9.190;2023-08-31T14:42:17;21.50;93.10
5128;DHT22;2582;48.770;9.190;2023-08-31T14:44:46;21.30;92.50
5128;DHT22;2582;48.770;9.190;2023-08-31T14:47:11;21.10;93.20
5128;DHT22;2582;48.770;9.190;2023-08-31T14:49:39;21.30;93.80
5128;DHT22;2582;48.770;9.190;2023-08-31T14:52:05;21.00;93.50
5128;DHT22;2582;48.770;9.190;2023-08-31T14:54:32;21.10;94.10
5128;DHT22;2582;48.770;9.190;2023-08-31T14:56:58;21.30;94.60
5128;DHT22;2582;48.770;9.190;2023-08-31T14:59:24;21.40;94.30
5128;DHT22;2582;48.770;9.190;2023-08-31T15:01:50;21.30;94.30
5128;DHT22;2582;48.770;9.190;2023-08-31T15:04:16;21.10;93.90
5128;DHT22;2582;48.770;9.190;2023-08-31T15:06:42;20.90;94.20
5128;DHT22;2582;48.770;9.190;2023-08-31T15:09:08;21.10;94.60
5128;DHT22;2582;48.770;9.190;2023-08-31T15:11:33;21.00;94.50
5128;DHT22;2582;48.770;9.190;2023-08-31T15:13:59;21.00;94.50
5128;DHT22;2582;48.770;9.190;2023-08-31T15:16:25;20.90;94.40
5128;DHT22;2582;48.770;9.190;2023-08-31T15:18:51;20.90;95.20
5128;DHT22;2582;48.770;9.190;2023-08-31T15:21:16;20.90;94.60
5128;DHT22;2582;48.770;9.190;2023-08-31T15:23:43;20.90;95.00
5128;DHT22;2582;48.770;9.190;2023-08-31T15:26:10;21.30;94.20
5128;DHT22;2582;48.770;9.190;2023-08-31T15:28:35;21.50;94.70
5128;DHT22;2582;48.770;9.190;2023-08-31T15:31:01;21.90;94.90
5128;DHT22;2582;48.770;9.190;2023-08-31T15:33:27;22.40;93.70
5128;DHT22;2582;48.770;9.190;2023-08-31T15:36:02;22.90;92.80
5128;DHT22;2582;48.770;9.190;2023-08-31T15:38:29;22.80;92.40
5128;DHT22;2582;48.770;9.190;2023-08-31T15:40:54;22.70;92.70
5128;DHT22;2582;48.770;9.190;2023-08-31T15:43:21;22.60;93.50
5128;DHT22;2582;48.770;9.190;2023-08-31T15:45:46;22.00;93.30
5128;DHT22;2582;48.770;9.190;2023-08-31T15:48:13;22.10;94.00
5128;DHT22;2582;48.770;9.190;2023-08-31T15:50:38;21.70;93.90
5128;DHT22;2582;48.770;9.190;2023-08-31T15:53:04;21.50;94.60
5128;DHT22;2582;48.770;9.190;2023-08-31T15:55:30;21.50;95.40
5128;DHT22;2582;48.770;9.190;2023-08-31T15:57:55;21.20;94.80
5128;DHT22;2582;48.770;9.190;2023-08-31T16:00:21;21.10;95.30
5128;DHT22;2582;48.770;9.190;2023-08-31T16:02:48;21.00;96.00
5128;DHT22;2582;48.770;9.190;2023-08-31T16:05:14;20.80;95.70
5128;DHT22;2582;48.770;9.190;2023-08-31T16:07:39;20.70;95.60
5128;DHT22;2582;48.770;9.190;2023-08-31T16:10:06;20.60;96.10